createdAt,value
2022-11-15T00:02:45.813Z,100422.56
2022-11-15T00:05:36.970Z,100425.22
2022-11-15T00:08:24.315Z,100415.66
2022-11-15T00:11:14.684Z,100413.09
2022-11-15T00:14:03.537Z,100411.44
2022-11-15T00:16:52.013Z,100409.63
2022-11-15T00:19:39.709Z,100402.72
2022-11-15T00:22:26.554Z,100403.56
2022-11-15T00:25:13.557Z,100394.88
2022-11-15T00:28:02.866Z,100398.41
2022-11-15T00:30:50.089Z,100401.00
2022-11-15T00:33:37.484Z,100391.38
2022-11-15T00:36:24.602Z,100393.06
2022-11-15T00:39:13.124Z,100383.47
2022-11-15T00:42:00.517Z,100383.47
2022-11-15T00:44:48.924Z,100374.94
2022-11-15T00:47:35.877Z,100361.94
2022-11-15T00:50:22.954Z,100369.78
2022-11-15T00:53:10.229Z,100355.00
2022-11-15T00:55:57.481Z,100354.00
2022-11-15T00:58:44.499Z,100354.09
2022-11-15T01:01:33.459Z,100350.59
2022-11-15T01:04:20.514Z,100345.38
2022-11-15T01:07:07.971Z,100344.72
2022-11-15T01:09:54.985Z,100341.22
2022-11-15T01:12:41.995Z,100341.22
2022-11-15T01:15:28.956Z,100335.19
2022-11-15T01:18:17.438Z,100329.94
2022-11-15T01:21:08.267Z,100323.91
2022-11-15T01:23:56.291Z,100318.78
2022-11-15T01:26:43.837Z,100320.53
2022-11-15T01:29:30.926Z,100317.97
2022-11-15T01:32:18.037Z,100311.97
2022-11-15T01:35:07.445Z,100317.19
2022-11-15T01:37:54.719Z,100307.66
2022-11-15T01:40:42.682Z,100309.41
2022-11-15T01:43:33.976Z,100304.19
2022-11-15T01:46:33.847Z,100301.72
2022-11-15T01:49:24.882Z,100305.19
2022-11-15T01:52:16.030Z,100300.00
2022-11-15T01:55:09.330Z,100293.13
2022-11-15T01:57:59.097Z,100283.59
2022-11-15T02:00:46.616Z,100287.16
2022-11-15T02:03:41.067Z,100287.31
2022-11-15T02:06:28.056Z,100286.38
2022-11-15T02:09:20.735Z,100284.66
2022-11-15T02:12:09.707Z,100283.81
2022-11-15T02:14:57.971Z,100281.25
2022-11-15T02:18:12.241Z,100271.75
2022-11-15T02:21:12.975Z,100268.31
2022-11-15T02:24:41.764Z,100275.34
2022-11-15T02:28:00.181Z,100275.34
2022-11-15T02:30:55.073Z,100272.69
2022-11-15T02:33:53.499Z,100269.19
2022-11-15T02:36:46.488Z,100262.31
2022-11-15T02:39:40.859Z,100259.69
2022-11-15T02:42:48.514Z,100260.50
2022-11-15T02:45:41.907Z,100264.91
2022-11-15T02:48:32.501Z,100254.53
2022-11-15T02:51:20.936Z,100253.72
2022-11-15T02:54:08.044Z,100247.66
2022-11-15T02:56:58.447Z,100245.94
2022-11-15T03:00:11.517Z,100241.63
2022-11-15T03:03:19.455Z,100228.69
2022-11-15T03:06:17.473Z,100227.03
2022-11-15T03:09:10.241Z,100219.44
2022-11-15T03:12:04.988Z,100220.56
2022-11-15T03:14:58.440Z,100218.78
2022-11-15T03:17:51.458Z,100217.00
2022-11-15T03:20:39.463Z,100211.56
2022-11-15T03:23:28.905Z,100212.31
2022-11-15T03:26:20.507Z,100212.31
2022-11-15T03:29:13.966Z,100209.13
2022-11-15T03:32:05.077Z,100210.09
2022-11-15T03:34:56.203Z,100198.09
2022-11-15T03:37:48.276Z,100193.97
2022-11-15T03:40:41.731Z,100189.56
2022-11-15T03:43:36.459Z,100190.28
2022-11-15T03:46:28.336Z,100190.22
2022-11-15T03:49:22.209Z,100178.97
2022-11-15T03:52:09.928Z,100180.78
2022-11-15T03:54:58.892Z,100174.72
2022-11-15T03:57:48.334Z,100171.16
2022-11-15T04:00:35.663Z,100169.38
2022-11-15T04:03:23.089Z,100169.28
2022-11-15T04:06:10.023Z,100159.66
2022-11-15T04:08:57.270Z,100158.00
2022-11-15T04:11:44.720Z,100157.50
2022-11-15T04:14:33.509Z,100152.53
2022-11-15T04:17:20.714Z,100143.09
2022-11-15T04:20:27.072Z,100144.00
2022-11-15T04:23:35.303Z,100145.72
2022-11-15T04:26:25.325Z,100131.78
2022-11-15T04:29:29.872Z,100142.25
2022-11-15T04:32:18.836Z,100137.22
2022-11-15T04:35:06.842Z,100137.22
2022-11-15T04:37:54.080Z,100126.94
2022-11-15T04:40:41.457Z,100132.88
2022-11-15T04:43:28.813Z,100125.94
2022-11-15T04:46:16.490Z,100127.66
2022-11-15T04:49:04.639Z,100118.94
2022-11-15T04:51:52.002Z,100116.41
2022-11-15T04:54:38.826Z,100111.28
2022-11-15T04:57:26.274Z,100117.28
2022-11-15T05:00:17.813Z,100118.97
2022-11-15T05:03:21.950Z,100112.94
2022-11-15T05:06:10.499Z,100107.09
2022-11-15T05:08:58.128Z,100105.31
2022-11-15T05:11:45.553Z,100099.28
2022-11-15T05:14:32.928Z,100105.28
2022-11-15T05:17:20.146Z,100095.72
2022-11-15T05:20:09.308Z,100096.50
2022-11-15T05:22:58.480Z,100093.97
2022-11-15T05:25:45.652Z,100085.41
2022-11-15T05:28:33.191Z,100084.56
2022-11-15T05:31:20.186Z,100086.25
2022-11-15T05:34:08.037Z,100088.84
2022-11-15T05:36:55.839Z,100084.59
2022-11-15T05:39:44.760Z,100086.41
2022-11-15T05:42:32.976Z,100079.59
2022-11-15T05:45:26.399Z,100080.53
2022-11-15T05:48:14.553Z,100073.56
2022-11-15T05:51:02.177Z,100072.66
2022-11-15T05:53:50.582Z,100077.94
2022-11-15T05:56:39.353Z,100070.22
2022-11-15T05:59:27.380Z,100071.88
2022-11-15T06:02:14.654Z,100074.63
2022-11-15T06:05:01.283Z,100077.97
2022-11-15T06:07:48.621Z,100077.94
2022-11-15T06:10:36.142Z,100080.56
2022-11-15T06:13:26.033Z,100081.34
2022-11-15T06:16:13.535Z,100078.66
2022-11-15T06:19:01.418Z,100081.47
2022-11-15T06:21:48.881Z,100085.03
2022-11-15T06:24:36.080Z,100089.38
2022-11-15T06:27:23.484Z,100084.97
2022-11-15T06:30:13.252Z,100088.41
2022-11-15T06:33:04.611Z,100091.94
2022-11-15T06:35:52.021Z,100098.84
2022-11-15T06:38:39.039Z,100097.81
2022-11-15T06:41:27.137Z,100099.47
2022-11-15T06:44:14.535Z,100106.41
2022-11-15T06:47:03.401Z,100104.78
2022-11-15T06:49:50.365Z,100103.88
2022-11-15T06:52:37.852Z,100103.09
2022-11-15T06:55:25.074Z,100101.41
2022-11-15T06:58:12.212Z,100108.31
2022-11-15T07:01:03.696Z,100102.34
2022-11-15T07:03:52.367Z,100106.59
2022-11-15T07:06:40.106Z,100107.53
2022-11-15T07:09:28.142Z,100106.59
2022-11-15T07:12:15.417Z,100113.56
2022-11-15T07:15:02.756Z,100107.63
2022-11-15T07:17:50.407Z,100111.78
2022-11-15T07:20:38.727Z,100104.97
2022-11-15T07:23:25.745Z,100108.38
2022-11-15T07:26:13.221Z,100109.06
2022-11-15T07:29:00.334Z,100104.69
2022-11-15T07:31:48.140Z,100108.94
2022-11-15T07:34:35.411Z,100111.53
2022-11-15T07:37:24.363Z,100099.53
2022-11-15T07:40:13.259Z,100094.19
2022-11-15T07:43:05.298Z,100090.53
2022-11-15T07:45:57.694Z,100081.72
2022-11-15T07:48:47.079Z,100087.59
2022-11-15T07:51:34.271Z,100078.81
2022-11-15T07:54:22.552Z,100082.13
2022-11-15T07:57:11.675Z,100077.91
2022-11-15T08:00:01.315Z,100076.13
2022-11-15T08:02:49.582Z,100076.94
2022-11-15T08:05:38.471Z,100076.94
2022-11-15T08:08:26.297Z,100070.09
2022-11-15T08:11:15.256Z,100074.31
2022-11-15T08:14:02.456Z,100073.38
2022-11-15T08:16:51.174Z,100073.31
2022-11-15T08:19:38.460Z,100073.28
2022-11-15T08:22:26.076Z,100065.22
2022-11-15T08:25:14.089Z,100061.53
2022-11-15T08:28:05.636Z,100054.59
2022-11-15T08:30:54.490Z,100057.16
2022-11-15T08:33:41.835Z,100060.69
2022-11-15T08:36:34.832Z,100053.59
2022-11-15T08:39:29.020Z,100049.34
2022-11-15T08:42:19.892Z,100052.78
2022-11-15T08:45:10.570Z,100043.88
2022-11-15T08:47:58.235Z,100041.28
2022-11-15T08:50:45.692Z,100044.94
2022-11-15T08:53:33.201Z,100044.97
2022-11-15T08:56:20.732Z,100046.06
2022-11-15T08:59:07.431Z,100048.72
2022-11-15T09:01:56.572Z,100041.66
2022-11-15T09:04:44.631Z,100032.75
2022-11-15T09:07:33.123Z,100043.84
2022-11-15T09:10:20.522Z,100037.78
2022-11-15T09:13:08.131Z,100031.66
2022-11-15T09:15:55.444Z,100027.19
2022-11-15T09:18:44.429Z,100038.19
2022-11-15T09:21:32.422Z,100032.81
2022-11-15T09:24:20.229Z,100035.38
2022-11-15T09:27:07.675Z,100028.31
2022-11-15T09:29:55.089Z,100025.50
2022-11-15T09:32:42.538Z,100027.97
2022-11-15T09:35:30.909Z,100030.56
2022-11-15T09:38:18.513Z,100027.22
2022-11-15T09:41:35.729Z,100021.22
2022-11-15T09:44:40.347Z,100014.22
2022-11-15T09:47:49.551Z,100012.41
2022-11-15T09:50:48.123Z,100003.53
2022-11-15T09:53:50.682Z,99992.22
2022-11-15T09:56:19.405Z,99997.47
2022-11-15T09:59:01.230Z,99987.13
2022-11-15T10:01:43.450Z,99991.47
2022-11-15T10:04:13.072Z,99982.75
2022-11-15T10:06:51.436Z,99981.50
2022-11-15T10:09:27.145Z,99975.09
2022-11-15T10:11:56.664Z,99967.94
2022-11-15T10:14:28.752Z,99965.41
2022-11-15T10:17:33.765Z,99954.31
2022-11-15T10:20:14.821Z,99942.84
2022-11-15T10:22:49.493Z,99940.16
2022-11-15T10:25:22.257Z,99941.56
2022-11-15T10:27:57.016Z,99937.94
2022-11-15T10:30:33.868Z,99941.41
2022-11-15T10:33:14.435Z,99938.69
2022-11-15T10:35:43.869Z,99938.38
2022-11-15T10:38:15.222Z,99938.84
2022-11-15T10:40:44.977Z,99929.78
2022-11-15T10:43:18.183Z,99938.41
2022-11-15T10:45:48.345Z,99925.16
2022-11-15T10:48:27.843Z,99922.63
2022-11-15T10:50:58.339Z,99927.16
2022-11-15T10:53:33.851Z,99918.81
2022-11-15T10:56:07.690Z,99910.97
2022-11-15T10:58:40.276Z,99909.22
2022-11-15T11:01:18.373Z,99902.31
2022-11-15T11:03:48.248Z,99906.06
2022-11-15T11:06:19.324Z,99904.69
2022-11-15T11:08:58.447Z,99902.13
2022-11-15T11:11:27.871Z,99899.44
2022-11-15T11:13:56.363Z,99891.91
2022-11-15T11:16:43.693Z,99882.72
2022-11-15T11:19:32.821Z,99883.81
2022-11-15T11:22:11.727Z,99883.66
2022-11-15T11:24:51.187Z,99881.25
2022-11-15T11:27:31.551Z,99866.31
2022-11-15T11:30:17.304Z,99860.84
2022-11-15T11:33:21.042Z,99860.03
2022-11-15T11:36:05.756Z,99867.47
2022-11-15T11:38:45.703Z,99858.31
2022-11-15T11:41:29.585Z,99851.41
2022-11-15T11:44:08.258Z,99847.97
2022-11-15T11:46:51.830Z,99840.75
2022-11-15T11:49:27.031Z,99832.09
2022-11-15T11:52:01.165Z,99830.16
2022-11-15T11:54:49.339Z,99825.56
2022-11-15T11:57:28.088Z,99822.38
2022-11-15T12:00:03.970Z,99828.84
2022-11-15T12:02:44.470Z,99828.25
2022-11-15T12:05:15.707Z,99828.16
2022-11-15T12:07:47.279Z,99813.97
2022-11-15T12:10:23.347Z,99810.00
2022-11-15T12:13:01.187Z,99807.00
2022-11-15T12:15:34.095Z,99809.13
2022-11-15T12:18:03.931Z,99804.16
2022-11-15T12:20:38.979Z,99816.25
2022-11-15T12:23:16.061Z,99805.63
2022-11-15T12:25:52.341Z,99792.56
2022-11-15T12:28:52.902Z,99799.47
2022-11-15T12:31:38.338Z,99805.63
2022-11-15T12:34:18.174Z,99797.03
2022-11-15T12:36:47.135Z,99790.91
2022-11-15T12:39:16.849Z,99785.69
2022-11-15T12:41:47.452Z,99787.34
2022-11-15T12:44:52.468Z,99779.41
2022-11-15T12:47:26.439Z,99781.13
2022-11-15T12:49:55.783Z,99774.06
2022-11-15T12:52:24.300Z,99772.16
2022-11-15T12:55:01.570Z,99770.28
2022-11-15T12:57:41.842Z,99765.72
2022-11-15T13:00:49.735Z,99765.56
2022-11-15T13:03:28.696Z,99770.69
2022-11-15T13:06:31.496Z,99760.13
2022-11-15T13:09:01.425Z,99760.94
2022-11-15T13:11:54.260Z,99758.38
2022-11-15T13:14:46.225Z,99760.34
2022-11-15T13:17:35.959Z,99749.25
2022-11-15T13:20:29.208Z,99747.66
2022-11-15T13:23:10.042Z,99753.03
2022-11-15T13:26:03.358Z,99755.78
2022-11-15T13:28:38.799Z,99753.22
2022-11-15T13:31:28.302Z,99750.66
2022-11-15T13:34:02.153Z,99750.81
2022-11-15T13:36:34.211Z,99752.56
2022-11-15T13:39:06.257Z,99744.00
2022-11-15T13:41:36.782Z,99752.69
2022-11-15T13:44:20.887Z,99746.69
2022-11-15T13:46:50.875Z,99741.66
2022-11-15T13:49:19.842Z,99746.19
2022-11-15T13:51:51.592Z,99741.97
2022-11-15T13:54:21.880Z,99736.22
2022-11-15T13:56:56.973Z,99730.31
2022-11-15T13:59:28.920Z,99729.66
2022-11-15T14:02:00.444Z,99729.78
2022-11-15T14:04:34.939Z,99723.13
2022-11-15T14:07:05.201Z,99725.78
2022-11-15T14:09:42.299Z,99719.94
2022-11-15T14:12:41.389Z,99721.13
2022-11-15T14:15:31.037Z,99717.13
2022-11-15T14:18:06.555Z,99720.00
2022-11-15T14:20:46.001Z,99721.13
2022-11-15T14:23:31.231Z,99715.28
2022-11-15T14:26:11.403Z,99713.69
2022-11-15T14:28:53.495Z,99704.34
2022-11-15T14:31:29.899Z,99701.13
2022-11-15T14:33:59.395Z,99699.69
2022-11-15T14:36:27.987Z,99698.28
2022-11-15T14:38:56.723Z,99693.41
2022-11-15T14:41:28.203Z,99689.41
2022-11-15T14:43:58.563Z,99690.50
2022-11-15T14:46:27.148Z,99689.88
2022-11-15T14:48:55.828Z,99685.75
2022-11-15T14:51:25.177Z,99691.06
2022-11-15T14:53:56.437Z,99699.09
2022-11-15T14:56:24.944Z,99697.69
2022-11-15T14:58:53.965Z,99704.91
2022-11-15T15:01:27.080Z,99698.13
2022-11-15T15:03:58.108Z,99701.88
2022-11-15T15:06:27.738Z,99700.41
2022-11-15T15:08:57.496Z,99704.94
2022-11-15T15:11:28.426Z,99695.56
2022-11-15T15:13:58.553Z,99703.47
2022-11-15T15:16:28.517Z,99696.75
2022-11-15T15:18:57.105Z,99693.25
2022-11-15T15:21:32.346Z,99682.84
2022-11-15T15:24:05.433Z,99682.94
2022-11-15T15:26:37.529Z,99678.63
2022-11-15T15:29:06.010Z,99685.66
2022-11-15T15:31:35.899Z,99680.53
2022-11-15T15:34:04.515Z,99678.88
2022-11-15T15:36:33.162Z,99679.06
2022-11-15T15:39:01.656Z,99683.53
2022-11-15T15:41:30.329Z,99687.22
2022-11-15T15:43:58.816Z,99675.41
2022-11-15T15:46:27.272Z,99674.00
2022-11-15T15:48:57.285Z,99669.88
2022-11-15T15:51:26.138Z,99661.28
2022-11-15T15:53:58.241Z,99663.97
2022-11-15T15:56:27.296Z,99665.84
2022-11-15T15:58:56.625Z,99671.19
2022-11-15T16:01:26.027Z,99674.03
2022-11-15T16:03:54.437Z,99670.75
2022-11-15T16:06:37.599Z,99658.41
2022-11-15T16:09:16.111Z,99657.44
2022-11-15T16:11:47.538Z,99659.13
2022-11-15T16:14:16.494Z,99653.09
2022-11-15T16:16:44.892Z,99654.03
2022-11-15T16:19:14.265Z,99656.91
2022-11-15T16:21:44.375Z,99662.28
2022-11-15T16:24:13.435Z,99658.88
2022-11-15T16:26:42.716Z,99660.63
2022-11-15T16:29:12.963Z,99671.03
2022-11-15T16:31:42.504Z,99659.91
2022-11-15T16:34:11.264Z,99659.94
2022-11-15T16:36:40.273Z,99663.38
2022-11-15T16:39:14.739Z,99663.44
2022-11-15T16:41:44.398Z,99657.53
2022-11-15T16:44:13.299Z,99663.00
2022-11-15T16:46:43.661Z,99654.69
2022-11-15T16:49:15.811Z,99652.41
2022-11-15T16:51:46.777Z,99654.38
2022-11-15T16:54:17.818Z,99652.00
2022-11-15T16:56:48.088Z,99647.00
2022-11-15T16:59:21.017Z,99652.38
2022-11-15T17:01:54.545Z,99654.72
2022-11-15T17:04:23.789Z,99660.50
2022-11-15T17:06:52.606Z,99662.91
2022-11-15T17:09:25.234Z,99655.72
2022-11-15T17:11:55.591Z,99659.88
2022-11-15T17:14:24.658Z,99648.47
2022-11-15T17:16:56.047Z,99643.88
2022-11-15T17:19:24.909Z,99641.16
2022-11-15T17:21:54.402Z,99640.19
2022-11-15T17:24:24.339Z,99631.34
2022-11-15T17:26:53.302Z,99632.16
2022-11-15T17:29:21.664Z,99631.19
2022-11-15T17:31:51.026Z,99638.06
2022-11-15T17:34:21.087Z,99638.00
2022-11-15T17:36:50.662Z,99628.41
2022-11-15T17:39:21.251Z,99636.06
2022-11-15T17:41:51.326Z,99633.38
2022-11-15T17:44:20.058Z,99626.38
2022-11-15T17:46:48.873Z,99625.47
2022-11-15T17:49:17.890Z,99628.03
2022-11-15T17:51:49.995Z,99621.03
2022-11-15T17:54:18.661Z,99616.66
2022-11-15T17:56:47.720Z,99619.94
2022-11-15T17:59:21.339Z,99623.34
2022-11-15T18:01:50.614Z,99611.09
2022-11-15T18:04:19.154Z,99615.34
2022-11-15T18:06:48.262Z,99610.88
2022-11-15T18:09:17.036Z,99603.75
2022-11-15T18:11:50.786Z,99600.22
2022-11-15T18:14:20.953Z,99604.47
2022-11-15T18:16:49.871Z,99612.22
2022-11-15T18:19:18.493Z,99619.94
2022-11-15T18:22:01.086Z,99608.59
2022-11-15T18:24:33.625Z,99616.31
2022-11-15T18:27:03.933Z,99606.75
2022-11-15T18:29:34.771Z,99611.84
2022-11-15T18:32:06.508Z,99609.31
2022-11-15T18:34:35.978Z,99608.41
2022-11-15T18:37:05.481Z,99600.47
2022-11-15T18:39:34.388Z,99597.84
2022-11-15T18:42:05.318Z,99595.34
2022-11-15T18:44:35.885Z,99601.56
2022-11-15T18:47:05.104Z,99595.53
2022-11-15T18:49:33.768Z,99595.44
2022-11-15T18:52:02.766Z,99589.34
2022-11-15T18:54:31.882Z,99590.97
2022-11-15T18:57:01.992Z,99585.91
2022-11-15T18:59:30.982Z,99586.78
2022-11-15T19:02:01.323Z,99582.47
2022-11-15T19:04:30.103Z,99591.03
2022-11-15T19:06:58.613Z,99584.03
2022-11-15T19:09:32.895Z,99587.44
2022-11-15T19:12:23.528Z,99595.13
2022-11-15T19:14:58.528Z,99593.31
2022-11-15T19:17:33.651Z,99581.13
2022-11-15T19:20:06.346Z,99594.00
2022-11-15T19:22:36.591Z,99588.78
2022-11-15T19:25:09.862Z,99589.56
2022-11-15T19:27:41.543Z,99592.16
2022-11-15T19:30:15.628Z,99592.16
2022-11-15T19:32:49.294Z,99593.03
2022-11-15T19:35:19.673Z,99587.09
2022-11-15T19:37:55.852Z,99591.44
2022-11-15T19:40:27.281Z,99592.31
2022-11-15T19:42:55.911Z,99596.66
2022-11-15T19:45:25.153Z,99594.91
2022-11-15T19:47:56.033Z,99584.53
2022-11-15T19:50:25.135Z,99595.78
2022-11-15T19:52:54.577Z,99591.44
2022-11-15T19:55:24.137Z,99597.47
2022-11-15T19:57:53.029Z,99596.56
2022-11-15T20:00:22.147Z,99588.66
2022-11-15T20:02:51.045Z,99585.06
2022-11-15T20:05:21.132Z,99578.94
2022-11-15T20:07:50.195Z,99581.50
2022-11-15T20:10:20.863Z,99578.94
2022-11-15T20:12:50.072Z,99572.91
2022-11-15T20:15:20.045Z,99568.63
2022-11-15T20:17:49.352Z,99571.34
2022-11-15T20:20:18.570Z,99572.19
2022-11-15T20:22:48.712Z,99566.13
2022-11-15T20:25:17.335Z,99567.03
2022-11-15T20:27:46.122Z,99559.22
2022-11-15T20:30:15.275Z,99556.59
2022-11-15T20:32:43.686Z,99559.22
2022-11-15T20:35:18.067Z,99562.72
2022-11-15T20:37:48.612Z,99560.13
2022-11-15T20:40:18.386Z,99553.22
2022-11-15T20:42:49.082Z,99556.59
2022-11-15T20:45:18.550Z,99550.56
2022-11-15T20:47:47.351Z,99541.03
2022-11-15T20:50:40.917Z,99547.97
2022-11-15T20:53:06.297Z,99542.75
2022-11-15T20:55:34.943Z,99531.41
2022-11-15T20:58:04.042Z,99525.28
2022-11-15T21:00:32.565Z,99521.75
2022-11-15T21:03:02.050Z,99523.47
2022-11-15T21:05:31.112Z,99529.47
2022-11-15T21:07:59.588Z,99525.28
2022-11-15T21:10:46.107Z,99528.03
2022-11-15T21:13:14.710Z,99540.25
2022-11-15T21:15:43.650Z,99535.09
2022-11-15T21:18:13.038Z,99533.41
2022-11-15T21:20:41.509Z,99546.44
2022-11-15T21:23:10.395Z,99539.59
2022-11-15T21:25:42.783Z,99538.84
2022-11-15T21:28:12.010Z,99543.19
2022-11-15T21:30:40.586Z,99534.66
2022-11-15T21:33:11.005Z,99534.69
2022-11-15T21:35:40.014Z,99523.50
2022-11-15T21:38:09.008Z,99523.47
2022-11-15T21:40:40.245Z,99523.38
2022-11-15T21:43:09.001Z,99512.91
2022-11-15T21:45:37.816Z,99512.91
2022-11-15T21:48:07.212Z,99507.75
2022-11-15T21:50:36.147Z,99512.97
2022-11-15T21:53:04.774Z,99512.97
2022-11-15T21:55:33.281Z,99523.47
2022-11-15T21:58:03.307Z,99519.13
2022-11-15T22:00:49.274Z,99517.38
2022-11-15T22:03:18.456Z,99520.13
2022-11-15T22:05:47.921Z,99528.03
2022-11-15T22:08:17.069Z,99532.31
2022-11-15T22:10:48.478Z,99522.69
2022-11-15T22:13:19.147Z,99511.31
2022-11-15T22:15:48.111Z,99510.38
2022-11-15T22:18:20.081Z,99512.09
2022-11-15T22:20:57.521Z,99511.28
2022-11-15T22:23:27.882Z,99505.28
2022-11-15T22:25:56.980Z,99507.03
2022-11-15T22:28:27.489Z,99505.28
2022-11-15T22:30:57.155Z,99501.88
2022-11-15T22:33:31.853Z,99509.72
2022-11-15T22:36:02.178Z,99502.00
2022-11-15T22:38:31.896Z,99502.78
2022-11-15T22:41:02.116Z,99497.59
2022-11-15T22:43:32.711Z,99501.88
2022-11-15T22:46:03.908Z,99491.41
2022-11-15T22:48:34.915Z,99482.75
2022-11-15T22:51:04.728Z,99482.84
2022-11-15T22:53:33.683Z,99481.25
2022-11-15T22:56:04.616Z,99479.59
2022-11-15T22:58:36.132Z,99471.56
2022-11-15T23:01:06.570Z,99474.16
2022-11-15T23:03:35.838Z,99466.41
2022-11-15T23:06:07.047Z,99459.50
2022-11-15T23:08:37.032Z,99458.56
2022-11-15T23:11:24.063Z,99455.81
2022-11-15T23:13:55.089Z,99455.91
2022-11-15T23:16:26.192Z,99452.56
2022-11-15T23:18:57.399Z,99450.75
2022-11-15T23:21:46.410Z,99446.31
2022-11-15T23:24:16.403Z,99456.88
2022-11-15T23:26:46.580Z,99455.22
2022-11-15T23:29:18.371Z,99441.47
2022-11-15T23:32:05.696Z,99450.16
2022-11-15T23:34:38.454Z,99451.97
2022-11-15T23:37:09.405Z,99449.34
2022-11-15T23:39:38.872Z,99455.41
2022-11-15T23:42:09.604Z,99450.28
2022-11-15T23:44:39.970Z,99457.28
2022-11-15T23:47:08.739Z,99446.78
2022-11-15T23:49:40.742Z,99434.59
2022-11-15T23:52:09.517Z,99430.25
2022-11-15T23:54:39.481Z,99426.81
2022-11-15T23:57:12.034Z,99420.66
2022-11-15T23:59:44.275Z,99427.56
